| time (UTC) | temp C | wind direction | speed KPH | gust KPH | rain 1hr cm | rain 24hr cm | rain mn cm | humidity % | barometer mb |
| 20260504184503 | 19 | 235 | 3.2 | 4.8 | 0.00 | 0.00 | 0.00 | 68 | 1005.8 |
| 20260504184004 | 19 | 234 | 3.2 | 8.0 | 0.00 | 0.00 | 0.00 | 69 | 1005.8 |
| 20260504183504 | 19 | 270 | 3.2 | 8.0 | 0.00 | 0.00 | 0.00 | 69 | 1005.8 |
| 20260504182004 | 20 | 235 | 3.2 | 9.7 | 0.00 | 0.00 | 0.00 | 69 | 1005.9 |
| 20260504181503 | 20 | 237 | 3.2 | 9.7 | 0.00 | 0.00 | 0.00 | 69 | 1005.9 |
| 20260504181004 | 19 | 136 | 1.6 | 8.0 | 0.00 | 0.00 | 0.00 | 67 | 1005.8 |
| 20260504180504 | 19 | 123 | 1.6 | 8.0 | 0.00 | 0.00 | 0.00 | 68 | 1005.8 |
| 20260504180003 | 19 | 271 | 3.2 | 8.0 | 0.00 | 0.00 | 0.00 | 67 | 1005.8 |
| 20260504175503 | 19 | 286 | 3.2 | 9.7 | 0.00 | 0.00 | 0.00 | 66 | 1005.8 |
| 20260504175004 | 19 | 227 | 3.2 | 9.7 | 0.00 | 0.00 | 0.00 | 65 | 1005.8 |
| 20260504173503 | 19 | 225 | 4.8 | 12.9 | 0.00 | 0.00 | 0.00 | 66 | 1005.7 |
| 20260504173004 | 19 | 192 | 8.0 | 12.9 | 0.00 | 0.00 | 0.00 | 65 | 1005.7 |
| 20260504172004 | 19 | 200 | 8.0 | 25.7 | 0.00 | 0.00 | 0.00 | 66 | 1006.2 |
| 20260504171504 | 19 | 185 | 8.0 | 25.7 | 0.00 | 0.00 | 0.00 | 65 | 1006.2 |
| 20260504170503 | 18 | 212 | 4.8 | 11.3 | 0.00 | 0.00 | 0.00 | 68 | 1006.8 |
| 20260504150504 | 21 | 204 | 8.0 | 16.1 | 0.00 | 0.00 | 0.00 | 56 | 1008.0 |
| 20260504141004 | 20 | 204 | 8.0 | 16.1 | 0.00 | 0.00 | 0.00 | 60 | 1007.9 |
| 20260504140504 | 20 | 172 | 6.4 | 16.1 | 0.00 | 0.00 | 0.00 | 62 | 1007.9 |
| 20260504130503 | 16 | 164 | 3.2 | 11.3 | 0.00 | 0.00 | 0.00 | 78 | 1008.7 |
| 20260504110504 | 13 | 225 | 1.6 | 4.8 | 0.00 | 0.00 | 0.00 | 82 | 1008.8 |
| 20260504100503 | 14 | 137 | 3.2 | 9.7 | 0.00 | 0.00 | 0.00 | 79 | 1008.5 |
| 20260504082004 | 15 | 94 | 3.2 | 8.0 | 0.00 | 0.00 | 0.00 | 73 | 1008.5 |
| 20260504081004 | 16 | 157 | 3.2 | 8.0 | 0.00 | 0.00 | 0.00 | 74 | 1008.5 |
| 20260504080503 | 16 | 47 | 3.2 | 8.0 | 0.00 | 0.00 | 0.00 | 74 | 1008.5 |
| 20260504050503 | 18 | 213 | 11.3 | 22.5 | 0.00 | 0.00 | 0.00 | 58 | 1008.1 |
| 20260504050003 | 18 | 208 | 11.3 | 20.9 | 0.00 | 0.00 | 0.00 | 58 | 1008.1 |
| 20260504045503 | 18 | 207 | 9.7 | 19.3 | 0.00 | 0.00 | 0.00 | 58 | 1008.5 |
| 20260504044504 | 18 | 199 | 9.7 | 22.5 | 0.00 | 0.00 | 0.00 | 56 | 1008.5 |
| 20260504043504 | 18 | 199 | 9.7 | 24.1 | 0.00 | 0.00 | 0.00 | 56 | 1009.0 |
| 20260504043004 | 18 | 208 | 9.7 | 24.1 | 0.00 | 0.00 | 0.00 | 56 | 1009.0 |
| 20260504042504 | 18 | 200 | 9.7 | 22.5 | 0.00 | 0.00 | 0.00 | 55 | 1009.2 |
| 20260504042004 | 18 | 216 | 9.7 | 22.5 | 0.00 | 0.00 | 0.00 | 55 | 1009.2 |
| 20260504041503 | 18 | 250 | 9.7 | 22.5 | 0.00 | 0.00 | 0.00 | 55 | 1009.2 |
| 20260504041004 | 18 | 243 | 8.0 | 22.5 | 0.00 | 0.00 | 0.00 | 56 | 1009.5 |
| 20260504040503 | 18 | 204 | 8.0 | 22.5 | 0.00 | 0.00 | 0.00 | 55 | 1009.5 |
| 20260504040004 | 18 | 232 | 9.7 | 20.9 | 0.00 | 0.00 | 0.00 | 56 | 1009.5 |
| 20260504035503 | 18 | 220 | 9.7 | 20.9 | 0.00 | 0.00 | 0.00 | 56 | 1009.6 |
| 20260504035004 | 18 | 203 | 11.3 | 19.3 | 0.00 | 0.00 | 0.00 | 55 | 1009.6 |
| 20260504034504 | 18 | 198 | 11.3 | 20.9 | 0.00 | 0.00 | 0.00 | 55 | 1009.6 |
| 20260504033504 | 18 | 208 | 9.7 | 20.9 | 0.00 | 0.00 | 0.00 | 55 | 1009.6 |
| 20260504033004 | 18 | 203 | 9.7 | 24.1 | 0.00 | 0.00 | 0.00 | 56 | 1009.6 |
| 20260504032504 | 18 | 208 | 9.7 | 24.1 | 0.00 | 0.00 | 0.00 | 55 | 1009.6 |
| 20260504032004 | 18 | 196 | 8.0 | 20.9 | 0.00 | 0.00 | 0.00 | 55 | 1009.6 |
| 20260504031503 | 18 | 206 | 8.0 | 14.5 | 0.00 | 0.00 | 0.00 | 56 | 1009.6 |
| 20260504031004 | 18 | 189 | 8.0 | 19.3 | 0.00 | 0.00 | 0.00 | 56 | 1009.6 |
| 20260504030004 | 18 | 198 | 8.0 | 16.1 | 0.00 | 0.00 | 0.00 | 56 | 1009.6 |
| 20260504025504 | 18 | 192 | 8.0 | 14.5 | 0.00 | 0.00 | 0.00 | 55 | 1009.6 |
| 20260504025004 | 18 | 196 | 8.0 | 14.5 | 0.00 | 0.00 | 0.00 | 55 | 1009.6 |
| 20260504024004 | 18 | 208 | 8.0 | 14.5 | 0.00 | 0.00 | 0.00 | 55 | 1009.6 |
| 20260504023503 | 18 | 190 | 8.0 | 14.5 | 0.00 | 0.00 | 0.00 | 54 | 1009.6 |
| 20260504022004 | 18 | 183 | 8.0 | 20.9 | 0.00 | 0.00 | 0.00 | 54 | 1009.5 |
| 20260504021504 | 18 | 203 | 8.0 | 20.9 | 0.00 | 0.00 | 0.00 | 52 | 1009.5 |
| 20260504021004 | 18 | 196 | 8.0 | 12.9 | 0.00 | 0.00 | 0.00 | 52 | 1009.3 |
| 20260504020504 | 18 | 207 | 8.0 | 12.9 | 0.00 | 0.00 | 0.00 | 51 | 1009.3 |
| 20260504015503 | 19 | 205 | 8.0 | 14.5 | 0.00 | 0.00 | 0.00 | 52 | 1009.3 |
| 20260504014503 | 19 | 197 | 8.0 | 16.1 | 0.00 | 0.00 | 0.00 | 51 | 1009.3 |
| 20260504013504 | 19 | 203 | 8.0 | 14.5 | 0.00 | 0.00 | 0.00 | 51 | 1009.2 |
| 20260504013004 | 19 | 168 | 8.0 | 14.5 | 0.00 | 0.00 | 0.00 | 50 | 1009.2 |
| 20260504012004 | 20 | 201 | 8.0 | 20.9 | 0.00 | 0.00 | 0.00 | 49 | 1009.1 |
| 20260504011004 | 20 | 192 | 8.0 | 16.1 | 0.00 | 0.00 | 0.00 | 48 | 1009.1 |
| 20260504010504 | 20 | 193 | 8.0 | 16.1 | 0.00 | 0.00 | 0.00 | 48 | 1009.1 |
| 20260504010003 | 20 | 191 | 8.0 | 16.1 | 0.00 | 0.00 | 0.00 | 49 | 1009.1 |
| 20260504005004 | 20 | 203 | 8.0 | 16.1 | 0.00 | 0.00 | 0.00 | 48 | 1009.1 |
| 20260504004004 | 21 | 203 | 8.0 | 14.5 | 0.00 | 0.00 | 0.00 | 45 | 1009.1 |
| 20260504003504 | 21 | 203 | 6.4 | 14.5 | 0.00 | 0.00 | 0.00 | 44 | 1009.1 |
| 20260504002503 | 22 | 176 | 4.8 | 16.1 | 0.00 | 0.00 | 0.00 | 44 | 1009.1 |
| 20260504002004 | 22 | 213 | 8.0 | 16.1 | 0.00 | 0.00 | 0.00 | 44 | 1009.1 |
| 20260504001504 | 22 | 199 | 8.0 | 16.1 | 0.00 | 0.00 | 0.00 | 42 | 1009.1 |
| 20260504001004 | 23 | 203 | 8.0 | 19.3 | 0.00 | 0.00 | 0.00 | 41 | 1009.2 |
| 20260504000504 | 23 | 198 | 8.0 | 19.3 | 0.00 | 0.00 | 0.00 | 40 | 1009.2 |
| 20260504000004 | 23 | 193 | 8.0 | 19.3 | 0.00 | 0.00 | 0.00 | 40 | 1009.2 |
| 20260503235004 | 23 | 213 | 8.0 | 14.5 | 0.00 | 0.00 | 0.00 | 39 | 1009.3 |
| 20260503234503 | 23 | 149 | 8.0 | 12.9 | 0.00 | 0.00 | 0.00 | 39 | 1009.3 |
| 20260503233503 | 23 | 211 | 9.7 | 20.9 | 0.00 | 0.00 | 0.00 | 37 | 1009.4 |
| 20260503233004 | 23 | 201 | 9.7 | 16.1 | 0.00 | 0.00 | 0.00 | 38 | 1009.4 |
| 20260503232503 | 23 | 208 | 9.7 | 20.9 | 0.00 | 0.00 | 0.00 | 38 | 1009.4 |
| 20260503232004 | 24 | 201 | 9.7 | 22.5 | 0.00 | 0.00 | 0.00 | 37 | 1009.4 |
| 20260503231503 | 24 | 212 | 9.7 | 22.5 | 0.00 | 0.00 | 0.00 | 37 | 1009.4 |
| 20260503231004 | 24 | 211 | 11.3 | 22.5 | 0.00 | 0.00 | 0.00 | 38 | 1009.6 |
| 20260503230503 | 24 | 211 | 11.3 | 24.1 | 0.00 | 0.00 | 0.00 | 37 | 1009.6 |
| 20260503230004 | 24 | 204 | 11.3 | 24.1 | 0.00 | 0.00 | 0.00 | 36 | 1009.6 |
| 20260503225503 | 24 | 220 | 11.3 | 24.1 | 0.00 | 0.00 | 0.00 | 36 | 1009.6 |
| 20260503225004 | 24 | 206 | 11.3 | 27.4 | 0.00 | 0.00 | 0.00 | 37 | 1009.6 |
| 20260503224503 | 24 | 208 | 11.3 | 27.4 | 0.00 | 0.00 | 0.00 | 36 | 1009.6 |
| 20260503224004 | 24 | 218 | 12.9 | 24.1 | 0.00 | 0.00 | 0.00 | 37 | 1009.9 |
| 20260503223504 | 24 | 209 | 11.3 | 32.2 | 0.00 | 0.00 | 0.00 | 35 | 1009.9 |
| 20260503223004 | 24 | 233 | 11.3 | 32.2 | 0.00 | 0.00 | 0.00 | 35 | 1009.9 |
| 20260503222503 | 24 | 208 | 11.3 | 27.4 | 0.00 | 0.00 | 0.00 | 37 | 1010.0 |
| 20260503222004 | 24 | 188 | 11.3 | 20.9 | 0.00 | 0.00 | 0.00 | 36 | 1010.0 |
| 20260503221004 | 24 | 204 | 9.7 | 25.7 | 0.00 | 0.00 | 0.00 | 35 | 1009.9 |
| 20260503220503 | 24 | 207 | 9.7 | 25.7 | 0.00 | 0.00 | 0.00 | 36 | 1009.9 |
| 20260503220004 | 24 | 218 | 12.9 | 22.5 | 0.00 | 0.00 | 0.00 | 39 | 1009.9 |
| 20260503215504 | 24 | 219 | 12.9 | 27.4 | 0.00 | 0.00 | 0.00 | 37 | 1009.9 |
| 20260503215004 | 24 | 204 | 12.9 | 27.4 | 0.00 | 0.00 | 0.00 | 35 | 1009.9 |
| 20260503214004 | 24 | 201 | 11.3 | 27.4 | 0.00 | 0.00 | 0.00 | 36 | 1010.1 |
| 20260503213504 | 24 | 204 | 11.3 | 27.4 | 0.00 | 0.00 | 0.00 | 36 | 1010.1 |
| 20260503212003 | 23 | 209 | 11.3 | 32.2 | 0.00 | 0.00 | 0.00 | 37 | 1010.3 |
| 20260503211504 | 23 | 221 | 11.3 | 29.0 | 0.00 | 0.00 | 0.00 | 38 | 1010.3 |
| 20260503211004 | 23 | 198 | 12.9 | 29.0 | 0.00 | 0.00 | 0.00 | 37 | 1010.7 |
| 20260503210005 | 23 | 194 | 12.9 | 29.0 | 0.00 | 0.00 | 0.00 | 39 | 1010.7 |
| 20260503205504 | 23 | 193 | 11.3 | 29.0 | 0.00 | 0.00 | 0.00 | 37 | 1011.0 |
| 20260503205004 | 23 | 213 | 9.7 | 29.0 | 0.00 | 0.00 | 0.00 | 37 | 1011.0 |
| 20260503204504 | 23 | 196 | 9.7 | 25.7 | 0.00 | 0.00 | 0.00 | 37 | 1011.0 |
| 20260503204004 | 23 | 238 | 11.3 | 25.7 | 0.00 | 0.00 | 0.00 | 41 | 1011.3 |
| 20260503202503 | 22 | 230 | 12.9 | 29.0 | 0.00 | 0.00 | 0.00 | 40 | 1011.5 |
| 20260503202004 | 22 | 208 | 12.9 | 37.0 | 0.00 | 0.00 | 0.00 | 39 | 1011.5 |
| 20260503201004 | 22 | 208 | 11.3 | 33.8 | 0.00 | 0.00 | 0.00 | 43 | 1012.0 |
| 20260503200004 | 22 | 211 | 12.9 | 27.4 | 0.00 | 0.00 | 0.00 | 41 | 1012.0 |
| 20260503195503 | 22 | 186 | 12.9 | 27.4 | 0.00 | 0.00 | 0.00 | 41 | 1012.4 |
| 20260503195005 | 22 | 223 | 12.9 | 27.4 | 0.00 | 0.00 | 0.00 | 42 | 1012.4 |
| 20260503194504 | 22 | 209 | 12.9 | 35.4 | 0.00 | 0.00 | 0.00 | 41 | 1012.4 |
| 20260503194004 | 22 | 202 | 12.9 | 35.4 | 0.00 | 0.00 | 0.00 | 40 | 1013.0 |
| 20260503193503 | 21 | 204 | 12.9 | 29.0 | 0.00 | 0.00 | 0.00 | 45 | 1013.0 |
| 20260503193004 | 21 | 198 | 12.9 | 29.0 | 0.00 | 0.00 | 0.00 | 42 | 1013.0 |
| 20260503192504 | 21 | 212 | 12.9 | 27.4 | 0.00 | 0.00 | 0.00 | 40 | 1013.3 |
| 20260503192004 | 21 | 199 | 11.3 | 27.4 | 0.00 | 0.00 | 0.00 | 44 | 1013.3 |
| 20260503191004 | 21 | 216 | 12.9 | 29.0 | 0.00 | 0.00 | 0.00 | 43 | 1013.9 |
| 20260503190003 | 21 | 204 | 11.3 | 29.0 | 0.00 | 0.00 | 0.00 | 42 | 1013.9 |
| 20260503185504 | 21 | 203 | 11.3 | 29.0 | 0.00 | 0.00 | 0.00 | 43 | 1014.0 |
| 20260503185004 | 20 | 216 | 12.9 | 25.7 | 0.00 | 0.00 | 0.00 | 44 | 1014.0 |